Country
Station

 

Weather  for  Atlanta, Hartsfield Atlanta International Airport  -  United States    United States

  
18 °C (64 °F)
    
 
 

Current METAR for Atlanta, Hartsfield Atlanta International Airport is :

KATL 192052Z 32012G22KT 290V010 10SM CLR 18/04 A3010 RMK AO2 SLP187 T01830044 51003

 

This is a report for Atlanta, Hartsfield Atlanta International Airport - United States.
 
The report was made 35 minutes ago, at 20:52 UTC .
The wind was blowing at a speed of 6.2 meters per second (13.8 miles per hour) with gusts up to 11.3 meters per second (25.3 miles per hour) from northwest (320°), varying between west/northwest (290°) and north (010°).
 
The temperature was 18 °C (64 °F), with a dew-point at 4 °C (39 °F).
The atmospheric pressure was 1019 hPa (30.10 inHg).
The relative humidity was 39.4%.
 
The sky was clear.
 
The overall visibility was 16.1 kilometers (10.0 miles).
 

 
 
 
 

Country :   A   B   C   D   E   F   G   H   I   J   K   L   M   N   O   P   Q   R   S   T   U   V   W   Y   Z

 

Site Info  |  Disclaimer  |  Credits  |  Privacy
Contact us  |  Add to favorites
© 2013-2018 METARs - All rights reserved